Huancayo, Peru
Current Conditions -  °F | °C
As of 6:00 PM on Friday 19 Dec 2014 (Local Time) from SPHO Reporting Station
Scattered Clouds Scattered Clouds  
Wind Chill: 73°   Ceiling: Unl
Heat Index: 73°   Visibility: 6mi
Dew Point: 46°   Wind: 8mph
Humidity: 38%   Direction: 320°NW
Pressure: 30.06"   Gusts: NA
Location:  12.07°S, 75.21°W
Report Text: SPHO 192300Z 32007KT 9999 FEW040 SCT170 23/08 Q1018 RMK PP000
Loading
Personal Weather Stations






























Interactive Weather Map New forecast layout! Learn more

10-Day Weather Forecast

Advertisements
Track Severe Weather on mobile